createdAt,value
2019-04-06T00:00:23.448Z,48.60
2019-04-06T00:02:58.584Z,58.23
2019-04-06T00:05:33.972Z,52.10
2019-04-06T00:08:10.006Z,57.87
2019-04-06T00:10:45.037Z,62.17
2019-04-06T00:13:20.106Z,62.93
2019-04-06T00:15:55.128Z,62.10
2019-04-06T00:18:30.244Z,53.40
2019-04-06T00:21:05.298Z,65.10
2019-04-06T00:23:40.356Z,54.53
2019-04-06T00:26:15.515Z,49.67
2019-04-06T00:28:50.952Z,60.37
2019-04-06T00:31:36.698Z,53.43
2019-04-06T00:34:11.975Z,58.47
2019-04-06T00:36:48.380Z,64.90
2019-04-06T00:39:23.629Z,52.60
2019-04-06T00:41:58.705Z,59.90
2019-04-06T00:44:34.325Z,59.53
2019-04-06T00:47:10.147Z,57.77
2019-04-06T00:49:45.299Z,64.17
2019-04-06T00:52:20.354Z,64.20
2019-04-06T00:54:55.390Z,57.90
2019-04-06T00:57:30.434Z,57.37
2019-04-06T01:00:05.997Z,60.93
2019-04-06T01:02:41.422Z,57.23
2019-04-06T01:05:16.417Z,62.17
2019-04-06T01:07:51.654Z,59.80
2019-04-06T01:10:26.840Z,56.60
2019-04-06T01:13:02.071Z,58.57
2019-04-06T01:15:37.131Z,66.93
2019-04-06T01:18:12.268Z,61.10
2019-04-06T01:20:47.289Z,60.87
2019-04-06T01:23:22.608Z,55.77
2019-04-06T01:26:06.577Z,73.40
2019-04-06T01:28:34.725Z,68.20
2019-04-06T01:31:09.729Z,66.30
2019-04-06T01:33:44.879Z,70.00
2019-04-06T01:36:19.897Z,59.17
2019-04-06T01:38:55.075Z,65.10
2019-04-06T01:41:30.177Z,55.67
2019-04-06T01:44:05.210Z,64.47
2019-04-06T01:46:41.422Z,61.47
2019-04-06T01:49:16.619Z,63.47
2019-04-06T01:51:51.938Z,65.33
2019-04-06T01:54:27.035Z,61.83
2019-04-06T01:57:04.161Z,57.07
2019-04-06T01:59:39.235Z,61.50
2019-04-06T02:02:24.807Z,66.70
2019-04-06T02:04:59.885Z,61.57
2019-04-06T02:07:35.208Z,64.23
2019-04-06T02:10:10.438Z,60.50
2019-04-06T02:12:45.771Z,73.13
2019-04-06T02:15:21.769Z,66.33
2019-04-06T02:17:56.773Z,55.37
2019-04-06T02:20:32.248Z,64.50
2019-04-06T02:23:10.366Z,51.37
2019-04-06T02:25:45.413Z,68.47
2019-04-06T02:28:21.508Z,71.80
2019-04-06T02:31:15.332Z,59.17
2019-04-06T02:34:18.290Z,71.77
2019-04-06T02:37:12.441Z,54.73
2019-04-06T02:40:09.397Z,65.80
2019-04-06T02:42:48.896Z,68.73
2019-04-06T02:45:23.983Z,59.00
2019-04-06T02:47:58.988Z,74.23
2019-04-06T02:50:34.488Z,71.83
2019-04-06T02:53:09.579Z,67.33
2019-04-06T02:55:44.599Z,65.87
2019-04-06T02:58:19.627Z,71.30
2019-04-06T03:00:54.858Z,58.73
2019-04-06T03:03:29.876Z,61.30
2019-04-06T03:06:05.996Z,73.50
2019-04-06T03:08:41.807Z,71.00
2019-04-06T03:11:16.828Z,73.57
2019-04-06T03:13:51.981Z,82.17
2019-04-06T03:16:27.396Z,69.37
2019-04-06T03:19:03.524Z,77.10
2019-04-06T03:21:38.748Z,66.80
2019-04-06T03:24:13.900Z,86.83
2019-04-06T03:27:00.712Z,79.87
2019-04-06T03:29:25.877Z,75.37
2019-04-06T03:32:01.371Z,71.03
2019-04-06T03:34:36.791Z,83.73
2019-04-06T03:37:12.093Z,82.70
2019-04-06T03:39:47.109Z,80.60
2019-04-06T03:42:22.349Z,93.63
2019-04-06T03:44:57.584Z,77.97
2019-04-06T03:47:32.876Z,88.97
2019-04-06T03:50:10.162Z,78.77
2019-04-06T03:52:45.407Z,77.30
2019-04-06T03:55:20.477Z,89.60
2019-04-06T03:57:55.515Z,88.33
2019-04-06T04:00:30.506Z,78.27
2019-04-06T04:03:06.237Z,87.40
2019-04-06T04:05:41.277Z,84.93
2019-04-06T04:08:16.549Z,79.40
2019-04-06T04:10:51.834Z,78.37
2019-04-06T04:13:27.444Z,83.07
2019-04-06T04:16:03.172Z,71.83
2019-04-06T04:18:39.192Z,88.33
2019-04-06T04:21:14.354Z,79.80
2019-04-06T04:23:49.332Z,93.37
2019-04-06T04:26:24.551Z,79.80
2019-04-06T04:29:00.451Z,83.43
2019-04-06T04:31:35.838Z,78.33
2019-04-06T04:34:11.061Z,86.13
2019-04-06T04:36:46.015Z,83.60
2019-04-06T04:39:21.164Z,83.87
2019-04-06T04:41:56.269Z,84.43
2019-04-06T04:44:31.272Z,76.97
2019-04-06T04:47:10.702Z,67.90
2019-04-06T04:49:45.737Z,86.23
2019-04-06T04:52:21.234Z,80.13
2019-04-06T04:54:56.420Z,79.33
2019-04-06T04:57:40.041Z,83.57
2019-04-06T05:00:14.645Z,82.87
2019-04-06T05:02:50.283Z,74.20
2019-04-06T05:05:25.535Z,79.47
2019-04-06T05:08:00.775Z,80.97
2019-04-06T05:10:35.961Z,69.87
2019-04-06T05:13:11.125Z,76.37
2019-04-06T05:16:13.488Z,76.30
2019-04-06T05:18:48.821Z,77.30
2019-04-06T05:21:24.657Z,80.27
2019-04-06T05:23:59.712Z,76.50
2019-04-06T05:26:39.821Z,87.03
2019-04-06T05:29:15.651Z,71.63
2019-04-06T05:31:50.653Z,80.57
2019-04-06T05:34:25.761Z,70.07
2019-04-06T05:37:01.541Z,68.20
2019-04-06T05:39:36.661Z,83.20
2019-04-06T05:42:11.793Z,78.53
2019-04-06T05:44:46.985Z,73.43
2019-04-06T05:47:22.157Z,70.63
2019-04-06T05:49:57.303Z,73.60
2019-04-06T05:52:33.177Z,73.37
2019-04-06T05:55:08.549Z,69.67
2019-04-06T05:57:43.756Z,71.30
2019-04-06T06:00:18.960Z,69.00
2019-04-06T06:02:54.153Z,70.63
2019-04-06T06:05:29.157Z,69.33
2019-04-06T06:08:04.556Z,80.57
2019-04-06T06:10:39.539Z,68.07
2019-04-06T06:13:14.663Z,75.47
2019-04-06T06:15:49.661Z,65.30
2019-04-06T06:18:27.492Z,73.97
2019-04-06T06:21:01.612Z,69.57
2019-04-06T06:23:36.641Z,83.33
2019-04-06T06:26:11.769Z,68.10
2019-04-06T06:28:46.769Z,68.97
2019-04-06T06:31:21.961Z,65.00
2019-04-06T06:33:57.156Z,66.97
2019-04-06T06:36:32.397Z,72.80
2019-04-06T06:39:09.754Z,76.17
2019-04-06T06:41:48.227Z,74.87
2019-04-06T06:44:23.463Z,67.30
2019-04-06T06:46:58.913Z,61.43
2019-04-06T06:49:34.303Z,71.23
2019-04-06T06:52:09.419Z,69.33
2019-04-06T06:54:44.695Z,65.27
2019-04-06T06:57:20.762Z,66.87
2019-04-06T06:59:59.004Z,63.47
2019-04-06T07:02:34.550Z,70.53
2019-04-06T07:05:11.073Z,63.43
2019-04-06T07:07:46.304Z,71.33
2019-04-06T07:10:21.424Z,70.43
2019-04-06T07:13:04.765Z,72.67
2019-04-06T07:15:39.847Z,72.87
2019-04-06T07:18:14.875Z,73.23
2019-04-06T07:20:49.921Z,72.80
2019-04-06T07:23:27.519Z,70.63
2019-04-06T07:26:07.951Z,69.13
2019-04-06T07:28:43.093Z,66.87
2019-04-06T07:31:18.071Z,80.97
2019-04-06T07:33:54.481Z,58.57
2019-04-06T07:36:29.524Z,65.53
2019-04-06T07:39:06.183Z,68.80
2019-04-06T07:41:44.322Z,66.37
2019-04-06T07:44:19.919Z,59.10
2019-04-06T07:46:55.005Z,58.90
2019-04-06T07:49:30.275Z,58.13
2019-04-06T07:52:05.729Z,57.93
2019-04-06T07:54:41.502Z,49.40
2019-04-06T07:57:16.509Z,58.57
2019-04-06T07:59:51.717Z,55.80
2019-04-06T08:02:28.468Z,55.20
2019-04-06T08:05:04.768Z,56.40
2019-04-06T08:07:39.977Z,56.53
2019-04-06T08:10:15.254Z,58.13
2019-04-06T08:12:50.295Z,62.83
2019-04-06T08:15:25.496Z,56.00
2019-04-06T08:18:03.759Z,57.17
2019-04-06T08:20:38.857Z,62.27
2019-04-06T08:23:14.341Z,59.10
2019-04-06T08:25:49.366Z,64.67
2019-04-06T08:28:24.658Z,51.47
2019-04-06T08:30:59.925Z,59.47
2019-04-06T08:33:36.597Z,55.10
2019-04-06T08:36:11.777Z,53.83
2019-04-06T08:38:46.967Z,54.90
2019-04-06T08:41:22.234Z,54.77
2019-04-06T08:43:57.229Z,59.80
2019-04-06T08:46:33.193Z,63.37
2019-04-06T08:49:08.294Z,58.20
2019-04-06T08:51:43.648Z,56.73
2019-04-06T08:54:18.706Z,54.03
2019-04-06T08:56:54.712Z,50.83
2019-04-06T08:59:30.067Z,54.10
2019-04-06T09:02:05.345Z,49.80
2019-04-06T09:04:40.435Z,48.70
2019-04-06T09:07:15.448Z,59.90
2019-04-06T09:09:50.459Z,57.27
2019-04-06T09:12:25.590Z,56.97
2019-04-06T09:15:00.685Z,54.07
2019-04-06T09:17:35.873Z,54.03
2019-04-06T09:20:11.325Z,59.27
2019-04-06T09:22:47.601Z,59.97
2019-04-06T09:25:23.734Z,58.87
2019-04-06T09:28:01.358Z,54.10
2019-04-06T09:30:55.797Z,53.50
2019-04-06T09:33:36.019Z,56.60
2019-04-06T09:36:12.140Z,53.57
2019-04-06T09:38:48.636Z,50.40
2019-04-06T09:41:26.079Z,53.20
2019-04-06T09:44:01.041Z,56.60
2019-04-06T09:47:00.275Z,50.23
2019-04-06T09:49:54.601Z,54.53
2019-04-06T09:52:38.726Z,57.40
2019-04-06T09:55:40.064Z,52.30
2019-04-06T09:58:40.013Z,54.50
2019-04-06T10:01:38.950Z,50.67
2019-04-06T10:04:43.449Z,54.90
2019-04-06T10:07:43.440Z,53.10
2019-04-06T10:10:38.102Z,53.43
2019-04-06T10:13:47.620Z,49.57
2019-04-06T10:16:41.909Z,51.53
2019-04-06T10:19:30.540Z,51.10
2019-04-06T10:22:42.507Z,52.03
2019-04-06T10:25:42.565Z,49.83
2019-04-06T10:28:34.932Z,51.60
2019-04-06T10:31:45.299Z,52.20
2019-04-06T10:34:41.874Z,47.30
2019-04-06T10:37:39.959Z,52.70
2019-04-06T10:40:35.485Z,49.50
2019-04-06T10:43:18.528Z,53.75
2019-04-06T10:46:22.080Z,48.10
2019-04-06T10:49:18.722Z,52.13
2019-04-06T10:52:14.868Z,45.00
2019-04-06T10:54:58.569Z,43.97
2019-04-06T10:57:56.078Z,46.03
2019-04-06T11:00:53.720Z,56.90
2019-04-06T11:03:44.552Z,45.17
2019-04-06T11:06:38.438Z,48.67
2019-04-06T11:09:40.741Z,48.17
2019-04-06T11:12:37.760Z,45.33
2019-04-06T11:15:30.477Z,40.80
2019-04-06T11:18:23.190Z,41.00
2019-04-06T11:21:22.215Z,39.47
2019-04-06T11:24:25.337Z,39.20
2019-04-06T11:27:22.267Z,40.43
2019-04-06T11:30:15.396Z,36.13
2019-04-06T11:33:07.009Z,40.50
2019-04-06T11:36:01.213Z,33.60
2019-04-06T11:38:50.030Z,35.67
2019-04-06T11:41:42.816Z,36.13
2019-04-06T11:44:33.043Z,34.13
2019-04-06T11:47:23.242Z,34.20
2019-04-06T11:50:26.114Z,36.67
2019-04-06T11:53:26.117Z,33.10
2019-04-06T11:56:09.993Z,36.83
2019-04-06T11:59:02.602Z,36.93
2019-04-06T12:02:02.634Z,34.27
2019-04-06T12:04:44.010Z,32.67
2019-04-06T12:07:29.452Z,28.67
2019-04-06T12:10:22.100Z,29.37
2019-04-06T12:13:19.940Z,29.60
2019-04-06T12:16:19.828Z,31.90
2019-04-06T12:19:15.188Z,32.00
2019-04-06T12:22:24.105Z,31.50
2019-04-06T12:25:16.901Z,42.20
2019-04-06T12:28:13.939Z,28.17
2019-04-06T12:30:53.536Z,30.53
2019-04-06T12:33:43.398Z,27.50
2019-04-06T12:36:22.962Z,28.20
2019-04-06T12:39:15.439Z,29.47
2019-04-06T12:42:03.972Z,25.77
2019-04-06T12:44:54.635Z,24.67
2019-04-06T12:47:48.505Z,23.77
2019-04-06T12:50:43.945Z,21.87
2019-04-06T12:53:37.886Z,20.67
2019-04-06T12:56:24.430Z,19.90
2019-04-06T12:59:21.832Z,21.20
2019-04-06T13:02:11.937Z,18.27
2019-04-06T13:05:00.634Z,19.37
2019-04-06T13:07:57.171Z,18.80
2019-04-06T13:10:47.306Z,19.43
2019-04-06T13:13:35.320Z,19.53
2019-04-06T13:16:34.122Z,19.83
2019-04-06T13:19:26.082Z,22.20
2019-04-06T13:22:24.086Z,22.53
2019-04-06T13:25:31.059Z,21.53
2019-04-06T13:28:22.458Z,19.90
2019-04-06T13:31:05.041Z,18.20
2019-04-06T13:36:51.914Z,17.90
2019-04-06T13:39:36.566Z,18.83
2019-04-06T13:42:35.884Z,21.53
2019-04-06T13:45:36.925Z,17.00
2019-04-06T13:48:29.708Z,15.83
2019-04-06T13:51:15.364Z,15.33
2019-04-06T13:54:03.599Z,14.53
2019-04-06T13:56:56.166Z,13.50
2019-04-06T13:59:48.912Z,15.33
2019-04-06T14:02:38.618Z,13.37
2019-04-06T14:05:36.523Z,13.73
2019-04-06T14:08:33.599Z,16.17
2019-04-06T14:11:26.928Z,16.50
2019-04-06T14:14:13.130Z,14.73
2019-04-06T14:17:07.089Z,14.30
2019-04-06T14:20:00.806Z,15.43
2019-04-06T14:22:57.830Z,14.43
2019-04-06T14:25:53.230Z,12.90
2019-04-06T14:28:45.247Z,12.45
2019-04-06T14:31:45.275Z,13.30
2019-04-06T14:34:39.345Z,12.33
2019-04-06T14:37:36.178Z,11.63
2019-04-06T14:40:39.385Z,11.97
2019-04-06T14:43:32.316Z,14.53
2019-04-06T14:46:14.255Z,12.73
2019-04-06T14:49:29.435Z,13.43
2019-04-06T14:52:09.868Z,12.40
2019-04-06T14:55:00.256Z,12.50
2019-04-06T14:57:54.581Z,10.63
2019-04-06T15:00:51.822Z,11.63
2019-04-06T15:03:45.907Z,11.67
2019-04-06T15:06:42.575Z,12.10
2019-04-06T15:09:42.684Z,15.00
2019-04-06T15:12:35.655Z,12.63
2019-04-06T15:15:45.024Z,11.63
2019-04-06T15:18:36.777Z,9.93
2019-04-06T15:21:33.727Z,9.73
2019-04-06T15:24:26.122Z,11.17
2019-04-06T15:27:18.305Z,11.40
2019-04-06T15:30:27.328Z,19.97
2019-04-06T15:33:20.143Z,13.40
2019-04-06T15:36:08.273Z,11.93
2019-04-06T15:39:02.357Z,10.77
2019-04-06T15:41:56.342Z,10.90
2019-04-06T15:45:06.513Z,10.60
2019-04-06T15:48:06.635Z,11.17
2019-04-06T15:50:57.446Z,11.07
2019-04-06T15:53:51.159Z,10.80
2019-04-06T15:56:54.225Z,11.47
2019-04-06T16:00:03.341Z,11.77
2019-04-06T16:03:01.424Z,10.40
2019-04-06T16:05:45.922Z,11.23
2019-04-06T16:08:39.767Z,11.03
2019-04-06T16:11:25.941Z,13.17
2019-04-06T16:14:11.294Z,11.73
2019-04-06T16:17:17.678Z,11.57
2019-04-06T16:20:03.047Z,12.07
2019-04-06T16:23:12.229Z,12.37
2019-04-06T16:26:06.054Z,11.40
2019-04-06T16:28:47.671Z,12.40
2019-04-06T16:31:31.067Z,12.23
2019-04-06T16:34:23.496Z,12.60
2019-04-06T16:37:20.538Z,12.53
2019-04-06T16:40:14.626Z,12.70
2019-04-06T16:43:02.931Z,15.53
2019-04-06T16:46:05.978Z,13.20
2019-04-06T16:48:57.559Z,11.53
2019-04-06T16:51:52.981Z,28.47
2019-04-06T16:54:56.391Z,14.63
2019-04-06T16:58:02.370Z,12.90
2019-04-06T17:00:59.470Z,15.13
2019-04-06T17:03:56.093Z,13.30
2019-04-06T17:07:03.202Z,13.10
2019-04-06T17:09:45.661Z,13.17
2019-04-06T17:12:39.566Z,13.37
2019-04-06T17:15:36.263Z,12.40
2019-04-06T17:18:48.497Z,11.30
2019-04-06T17:21:42.688Z,13.10
2019-04-06T17:24:48.828Z,12.40
2019-04-06T17:27:49.034Z,13.63
2019-04-06T17:30:29.759Z,13.37
2019-04-06T17:33:22.495Z,16.37
2019-04-06T17:36:06.820Z,12.70
2019-04-06T17:38:54.840Z,15.50
2019-04-06T17:41:52.083Z,14.43
2019-04-06T17:44:39.403Z,16.10
2019-04-06T17:47:30.221Z,14.13
2019-04-06T17:50:24.820Z,14.63
2019-04-06T17:53:14.755Z,14.53
2019-04-06T17:56:09.149Z,15.13
2019-04-06T17:59:06.397Z,14.40
2019-04-06T18:02:00.530Z,15.30
2019-04-06T18:05:03.571Z,14.87
2019-04-06T18:07:56.962Z,14.63
2019-04-06T18:10:52.792Z,14.37
2019-04-06T18:13:54.544Z,14.50
2019-04-06T18:16:35.555Z,13.83
2019-04-06T18:19:11.373Z,17.20
2019-04-06T18:21:47.218Z,14.03
2019-04-06T18:24:24.158Z,15.63
2019-04-06T18:26:59.251Z,15.10
2019-04-06T18:29:36.906Z,16.60
2019-04-06T18:32:25.482Z,17.97
2019-04-06T18:35:00.422Z,17.50
2019-04-06T18:37:46.772Z,17.33
2019-04-06T18:40:25.325Z,17.60
2019-04-06T18:43:01.940Z,16.83
2019-04-06T18:45:37.078Z,19.23
2019-04-06T18:48:12.422Z,18.60
2019-04-06T18:50:47.484Z,18.17
2019-04-06T18:53:23.008Z,20.03
2019-04-06T18:55:58.501Z,18.90
2019-04-06T18:58:35.486Z,17.97
2019-04-06T19:01:11.161Z,20.57
2019-04-06T19:03:46.443Z,20.03
2019-04-06T19:06:24.719Z,20.10
2019-04-06T19:08:59.969Z,20.40
2019-04-06T19:11:44.474Z,20.87
2019-04-06T19:14:18.607Z,27.23
2019-04-06T19:16:53.903Z,25.03
2019-04-06T19:19:30.178Z,22.33
2019-04-06T19:22:05.656Z,20.70
2019-04-06T19:24:41.813Z,23.60
2019-04-06T19:27:19.897Z,25.00
2019-04-06T19:29:55.227Z,28.10
2019-04-06T19:32:30.591Z,24.30
2019-04-06T19:35:06.837Z,24.17
2019-04-06T19:37:42.249Z,23.73
2019-04-06T19:40:17.783Z,23.63
2019-04-06T19:42:53.669Z,26.70
2019-04-06T19:45:28.905Z,26.23
2019-04-06T19:48:05.377Z,24.67
2019-04-06T19:50:40.756Z,27.33
2019-04-06T19:53:16.586Z,28.03
2019-04-06T19:55:53.455Z,28.97
2019-04-06T19:58:28.550Z,28.60
2019-04-06T20:01:04.262Z,31.53
2019-04-06T20:03:40.371Z,29.37
2019-04-06T20:06:18.315Z,30.20
2019-04-06T20:08:53.924Z,28.50
2019-04-06T20:11:29.137Z,29.70
2019-04-06T20:14:05.416Z,36.90
2019-04-06T20:16:40.809Z,31.23
2019-04-06T20:19:16.180Z,31.93
2019-04-06T20:21:52.016Z,33.10
2019-04-06T20:24:27.381Z,30.23
2019-04-06T20:27:02.763Z,33.40
2019-04-06T20:29:37.993Z,29.87
2019-04-06T20:32:13.382Z,31.40
2019-04-06T20:34:53.938Z,30.80
2019-04-06T20:37:31.947Z,31.03
2019-04-06T20:40:09.650Z,31.07
2019-04-06T20:42:45.211Z,32.73
2019-04-06T20:45:20.427Z,29.67
2019-04-06T20:47:57.422Z,35.27
2019-04-06T20:50:34.356Z,31.10
2019-04-06T20:53:12.371Z,32.03
2019-04-06T20:55:47.488Z,30.17
2019-04-06T20:58:22.951Z,31.57
2019-04-06T21:00:58.182Z,32.13
2019-04-06T21:03:33.604Z,29.97
2019-04-06T21:06:08.799Z,30.23
2019-04-06T21:08:44.082Z,30.07
2019-04-06T21:11:20.521Z,31.57
2019-04-06T21:13:56.212Z,30.10
2019-04-06T21:16:32.178Z,28.20
2019-04-06T21:19:07.290Z,29.07
2019-04-06T21:21:42.731Z,29.87
2019-04-06T21:24:18.075Z,29.50
2019-04-06T21:26:53.346Z,29.27
2019-04-06T21:29:28.865Z,28.03
2019-04-06T21:32:04.026Z,27.87
2019-04-06T21:34:39.349Z,28.97
2019-04-06T21:37:15.097Z,27.80
2019-04-06T21:39:50.152Z,27.80
2019-04-06T21:42:25.407Z,26.13
2019-04-06T21:45:00.430Z,27.40
2019-04-06T21:47:37.535Z,26.70
2019-04-06T21:50:12.823Z,25.57
2019-04-06T21:52:49.548Z,26.80
2019-04-06T21:55:24.764Z,24.67
2019-04-06T21:57:59.808Z,26.43
2019-04-06T22:00:50.028Z,25.63
2019-04-06T22:03:25.861Z,27.63
2019-04-06T22:06:01.348Z,29.23
2019-04-06T22:08:36.392Z,28.43
2019-04-06T22:11:11.974Z,26.63
2019-04-06T22:13:47.434Z,27.40
2019-04-06T22:16:23.318Z,26.70
2019-04-06T22:18:58.819Z,25.93
2019-04-06T22:21:34.720Z,24.00
2019-04-06T22:24:10.413Z,25.03
2019-04-06T22:26:45.973Z,25.33
2019-04-06T22:29:22.167Z,25.57
2019-04-06T22:31:57.320Z,25.90
2019-04-06T22:34:39.436Z,24.77
2019-04-06T22:37:09.947Z,24.00
2019-04-06T22:39:45.368Z,25.53
2019-04-06T22:42:21.285Z,25.53
2019-04-06T22:44:56.396Z,23.93
2019-04-06T22:47:31.552Z,24.70
2019-04-06T22:50:07.694Z,26.37
2019-04-06T22:52:43.446Z,26.60
2019-04-06T22:55:18.533Z,26.10
2019-04-06T22:57:54.548Z,26.47
2019-04-06T23:00:32.810Z,28.00
2019-04-06T23:03:25.329Z,27.40
2019-04-06T23:06:04.029Z,27.50
2019-04-06T23:08:39.366Z,28.80
2019-04-06T23:11:14.491Z,26.13
2019-04-06T23:13:49.639Z,32.57
2019-04-06T23:16:24.716Z,30.50
2019-04-06T23:19:00.295Z,28.27
2019-04-06T23:21:36.186Z,29.60
2019-04-06T23:24:11.451Z,30.67
2019-04-06T23:26:46.555Z,31.67
2019-04-06T23:29:22.150Z,30.50
2019-04-06T23:31:57.625Z,30.53
2019-04-06T23:34:33.012Z,30.80
2019-04-06T23:37:08.403Z,29.80
2019-04-06T23:39:43.704Z,30.20
2019-04-06T23:42:18.719Z,33.53
2019-04-06T23:44:56.067Z,31.30
2019-04-06T23:47:34.132Z,31.90
2019-04-06T23:50:13.323Z,31.73
2019-04-06T23:52:49.104Z,31.80
2019-04-06T23:55:26.119Z,29.90
2019-04-06T23:58:02.000Z,32.90
